createdAt,value
2022-09-06T00:00:33.520Z,9.56
2022-09-06T00:01:35.560Z,9.54
2022-09-06T00:02:38.153Z,9.56
2022-09-06T00:03:40.610Z,9.53
2022-09-06T00:04:43.173Z,9.55
2022-09-06T00:05:45.486Z,9.57
2022-09-06T00:06:47.525Z,9.59
2022-09-06T00:07:49.478Z,9.61
2022-09-06T00:08:51.247Z,9.61
2022-09-06T00:09:53.230Z,9.60
2022-09-06T00:11:01.034Z,9.57
2022-09-06T00:12:03.195Z,9.56
2022-09-06T00:13:07.183Z,9.57
2022-09-06T00:14:09.101Z,9.57
2022-09-06T00:15:11.093Z,9.59
2022-09-06T00:16:17.630Z,9.45
2022-09-06T00:17:20.375Z,9.43
2022-09-06T00:18:22.553Z,9.45
2022-09-06T00:19:24.779Z,9.46
2022-09-06T00:20:29.106Z,9.40
2022-09-06T00:21:31.442Z,9.36
2022-09-06T00:22:33.577Z,9.36
2022-09-06T00:23:35.631Z,9.30
2022-09-06T00:24:37.710Z,9.25
2022-09-06T00:25:39.757Z,9.23
2022-09-06T00:26:41.678Z,9.26
2022-09-06T00:27:43.824Z,9.31
2022-09-06T00:28:46.013Z,9.33
2022-09-06T00:29:48.428Z,9.37
2022-09-06T00:30:50.744Z,9.41
2022-09-06T00:31:52.913Z,9.42
2022-09-06T00:32:55.452Z,9.45
2022-09-06T00:33:57.494Z,9.47
2022-09-06T00:34:59.831Z,9.46
2022-09-06T00:36:02.516Z,9.48
2022-09-06T00:37:04.673Z,9.50
2022-09-06T00:38:06.842Z,9.51
2022-09-06T00:39:08.970Z,9.53
2022-09-06T00:40:12.224Z,9.56
2022-09-06T00:41:15.904Z,9.54
2022-09-06T00:42:18.400Z,9.55
2022-09-06T00:43:20.547Z,9.56
2022-09-06T00:44:22.574Z,9.57
2022-09-06T00:45:27.317Z,9.55
2022-09-06T00:46:32.172Z,9.56
2022-09-06T00:47:37.475Z,9.57
2022-09-06T00:48:41.790Z,9.55
2022-09-06T00:49:47.738Z,9.54
2022-09-06T00:50:53.640Z,9.51
2022-09-06T00:51:59.410Z,9.46
2022-09-06T00:53:01.893Z,9.46
2022-09-06T00:54:06.296Z,9.40
2022-09-06T00:55:09.492Z,9.36
2022-09-06T00:56:13.923Z,9.36
2022-09-06T00:57:17.402Z,9.36
2022-09-06T00:58:19.698Z,9.31
2022-09-06T00:59:28.460Z,9.30
2022-09-06T01:00:30.770Z,9.27
2022-09-06T01:01:33.525Z,9.22
2022-09-06T01:02:36.506Z,9.22
2022-09-06T01:03:39.481Z,9.23
2022-09-06T01:04:44.865Z,9.23
2022-09-06T01:05:59.277Z,9.24
2022-09-06T01:08:26.960Z,9.28
2022-09-06T01:09:35.692Z,9.14
2022-09-06T01:12:22.427Z,8.92
2022-09-06T01:13:46.874Z,8.76
2022-09-06T01:16:31.458Z,8.88
2022-09-06T01:17:43.086Z,8.77
2022-09-06T01:18:54.755Z,8.75
2022-09-06T01:20:21.257Z,8.72
2022-09-06T01:21:38.904Z,8.66
2022-09-06T01:22:59.836Z,8.61
2022-09-06T01:24:22.573Z,8.61
2022-09-06T01:25:43.522Z,8.53
2022-09-06T01:27:07.399Z,8.40
2022-09-06T01:28:18.746Z,8.33
2022-09-06T01:29:45.823Z,8.34
2022-09-06T01:30:57.973Z,8.28
2022-09-06T01:32:12.426Z,8.17
2022-09-06T01:33:20.852Z,8.19
2022-09-06T01:34:32.630Z,8.21
2022-09-06T01:35:47.136Z,8.19
2022-09-06T01:37:10.186Z,8.17
2022-09-06T01:38:10.001Z,8.13
2022-09-06T01:39:15.624Z,8.18
2022-09-06T01:40:18.261Z,8.22
2022-09-06T01:41:20.324Z,8.21
2022-09-06T01:42:29.050Z,8.23
2022-09-06T01:43:34.721Z,8.23
2022-09-06T01:44:38.793Z,8.25
2022-09-06T01:46:04.432Z,8.24
2022-09-06T01:47:19.057Z,8.23
2022-09-06T01:48:44.094Z,8.20
2022-09-06T01:49:52.929Z,8.23
2022-09-06T01:51:10.433Z,8.25
2022-09-06T01:54:01.494Z,8.36
2022-09-06T01:55:29.494Z,8.18
2022-09-06T01:56:59.312Z,8.15
2022-09-06T01:58:23.367Z,8.12
2022-09-06T01:59:44.108Z,8.07
2022-09-06T02:01:09.876Z,8.08
2022-09-06T02:02:37.366Z,8.11
2022-09-06T02:05:17.338Z,8.11
2022-09-06T02:06:23.795Z,7.99
2022-09-06T02:07:28.996Z,8.00
2022-09-06T02:08:34.720Z,8.00
2022-09-06T02:09:40.187Z,8.03
2022-09-06T02:10:48.677Z,8.06
2022-09-06T02:11:59.421Z,8.06
2022-09-06T02:13:05.095Z,8.03
2022-09-06T02:14:10.702Z,7.99
2022-09-06T02:15:28.342Z,8.02
2022-09-06T02:16:35.090Z,7.99
2022-09-06T02:17:41.818Z,7.98
2022-09-06T02:18:49.988Z,7.99
2022-09-06T02:19:58.348Z,7.96
2022-09-06T02:21:02.860Z,7.95
2022-09-06T02:22:08.511Z,7.96
2022-09-06T02:23:11.982Z,7.88
2022-09-06T02:25:31.235Z,7.94
2022-09-06T02:26:37.002Z,7.79
2022-09-06T02:27:39.620Z,7.79
2022-09-06T02:28:41.863Z,7.72
2022-09-06T02:29:44.115Z,7.76
2022-09-06T02:30:49.927Z,7.78
2022-09-06T02:32:10.290Z,7.80
2022-09-06T02:33:15.952Z,7.83
2022-09-06T02:34:19.827Z,7.86
2022-09-06T02:35:22.648Z,7.81
2022-09-06T02:36:25.161Z,7.79
2022-09-06T02:37:27.207Z,7.72
2022-09-06T02:38:30.510Z,7.73
2022-09-06T02:39:32.874Z,7.65
2022-09-06T02:40:35.599Z,7.64
2022-09-06T02:41:40.432Z,7.56
2022-09-06T02:42:42.618Z,7.50
2022-09-06T02:43:44.589Z,7.48
2022-09-06T02:44:46.362Z,7.47
2022-09-06T02:45:48.293Z,7.45
2022-09-06T02:46:53.859Z,7.45
2022-09-06T02:47:54.460Z,7.41
2022-09-06T02:48:56.435Z,7.38
2022-09-06T02:49:58.994Z,7.39
2022-09-06T02:51:06.309Z,7.47
2022-09-06T02:52:08.410Z,7.54
2022-09-06T02:53:12.754Z,7.54
2022-09-06T02:54:14.885Z,7.48
2022-09-06T02:55:16.811Z,7.44
2022-09-06T02:56:20.434Z,7.44
2022-09-06T02:57:22.460Z,7.48
2022-09-06T02:58:24.550Z,7.57
2022-09-06T02:59:26.656Z,7.63
2022-09-06T03:00:29.947Z,7.74
2022-09-06T03:01:32.733Z,7.81
2022-09-06T03:02:35.060Z,7.86
2022-09-06T03:03:37.175Z,7.84
2022-09-06T03:04:39.241Z,7.90
2022-09-06T03:05:42.054Z,7.94
2022-09-06T03:06:44.334Z,7.98
2022-09-06T03:07:46.376Z,8.01
2022-09-06T03:08:48.480Z,8.03
2022-09-06T03:09:50.754Z,8.02
2022-09-06T03:10:54.982Z,8.03
2022-09-06T03:11:57.607Z,8.03
2022-09-06T03:13:00.176Z,8.03
2022-09-06T03:14:02.218Z,8.04
2022-09-06T03:15:05.510Z,8.05
2022-09-06T03:16:08.133Z,8.04
2022-09-06T03:17:10.266Z,8.02
2022-09-06T03:18:12.382Z,8.01
2022-09-06T03:19:14.418Z,7.99
2022-09-06T03:20:17.717Z,7.93
2022-09-06T03:21:19.952Z,7.90
2022-09-06T03:22:21.905Z,7.82
2022-09-06T03:23:26.830Z,7.80
2022-09-06T03:24:31.076Z,7.76
2022-09-06T03:25:33.257Z,7.78
2022-09-06T03:26:35.802Z,7.79
2022-09-06T03:27:39.009Z,7.79
2022-09-06T03:28:41.126Z,7.80
2022-09-06T03:29:43.093Z,7.82
2022-09-06T03:30:47.924Z,7.82
2022-09-06T03:31:50.189Z,7.77
2022-09-06T03:32:53.448Z,7.65
2022-09-06T03:33:55.504Z,7.56
2022-09-06T03:34:57.977Z,7.53
2022-09-06T03:36:04.343Z,7.58
2022-09-06T03:37:10.112Z,7.50
2022-09-06T03:38:20.521Z,7.36
2022-09-06T03:39:22.594Z,7.31
2022-09-06T03:40:25.260Z,7.45
2022-09-06T03:41:27.280Z,7.45
2022-09-06T03:42:29.421Z,7.48
2022-09-06T03:43:31.954Z,7.54
2022-09-06T03:44:33.996Z,7.58
2022-09-06T03:45:35.973Z,7.53
2022-09-06T03:46:39.232Z,7.59
2022-09-06T03:47:42.024Z,7.63
2022-09-06T03:48:47.184Z,7.59
2022-09-06T03:49:49.778Z,7.54
2022-09-06T03:50:54.714Z,7.51
2022-09-06T03:51:56.816Z,7.54
2022-09-06T03:52:58.765Z,7.64
2022-09-06T03:54:00.741Z,7.76
2022-09-06T03:55:04.079Z,7.84
2022-09-06T03:56:07.476Z,7.88
2022-09-06T03:57:09.840Z,7.94
2022-09-06T03:58:11.890Z,7.97
2022-09-06T03:59:13.946Z,8.03
2022-09-06T04:00:18.721Z,8.07
2022-09-06T04:01:20.849Z,8.11
2022-09-06T04:02:23.026Z,8.11
2022-09-06T04:03:25.108Z,8.10
2022-09-06T04:04:27.206Z,8.06
2022-09-06T04:05:29.232Z,7.94
2022-09-06T04:06:31.831Z,7.91
2022-09-06T04:07:33.921Z,7.86
2022-09-06T04:08:37.108Z,7.91
2022-09-06T04:09:39.219Z,7.83
2022-09-06T04:10:43.513Z,7.81
2022-09-06T04:11:49.098Z,7.74
2022-09-06T04:12:55.420Z,7.65
2022-09-06T04:14:03.661Z,7.59
2022-09-06T04:15:08.834Z,7.55
2022-09-06T04:16:12.690Z,7.50
2022-09-06T04:17:14.796Z,7.54
2022-09-06T04:18:16.956Z,7.58
2022-09-06T04:19:20.025Z,7.59
2022-09-06T04:20:22.862Z,7.66
2022-09-06T04:21:25.035Z,7.65
2022-09-06T04:22:27.105Z,7.59
2022-09-06T04:23:29.374Z,7.63
2022-09-06T04:24:32.346Z,7.62
2022-09-06T04:25:34.541Z,7.65
2022-09-06T04:26:37.002Z,7.60
2022-09-06T04:27:39.045Z,7.66
2022-09-06T04:28:41.062Z,7.71
2022-09-06T04:29:43.052Z,7.69
2022-09-06T04:30:54.117Z,7.71
2022-09-06T04:31:56.289Z,7.78
2022-09-06T04:32:58.515Z,7.88
2022-09-06T04:34:00.573Z,7.86
2022-09-06T04:35:03.231Z,7.91
2022-09-06T04:36:08.519Z,7.90
2022-09-06T04:37:10.696Z,7.89
2022-09-06T04:38:14.875Z,7.90
2022-09-06T04:39:16.985Z,7.90
2022-09-06T04:40:19.808Z,7.94
2022-09-06T04:41:22.448Z,7.94
2022-09-06T04:42:24.644Z,8.02
2022-09-06T04:43:26.631Z,8.06
2022-09-06T04:44:28.599Z,8.13
2022-09-06T04:45:32.803Z,8.22
2022-09-06T04:46:34.927Z,8.30
2022-09-06T04:47:37.172Z,8.38
2022-09-06T04:48:39.211Z,8.42
2022-09-06T04:49:42.272Z,8.52
2022-09-06T04:50:44.444Z,8.62
2022-09-06T04:51:46.497Z,8.71
2022-09-06T04:52:48.664Z,8.63
2022-09-06T04:53:51.324Z,8.62
2022-09-06T04:54:53.366Z,8.65
2022-09-06T04:55:57.398Z,8.62
2022-09-06T04:56:59.572Z,8.56
2022-09-06T04:58:01.517Z,8.53
2022-09-06T04:59:03.654Z,8.34
2022-09-06T05:00:07.309Z,8.44
2022-09-06T05:01:10.842Z,8.42
2022-09-06T05:02:12.935Z,8.53
2022-09-06T05:03:15.321Z,8.60
2022-09-06T05:04:17.580Z,8.73
2022-09-06T05:05:19.727Z,8.87
2022-09-06T05:06:23.856Z,9.05
2022-09-06T05:07:25.960Z,9.19
2022-09-06T05:08:28.501Z,9.28
2022-09-06T05:09:32.491Z,9.20
2022-09-06T05:10:34.765Z,9.27
2022-09-06T05:11:36.805Z,9.27
2022-09-06T05:12:43.651Z,9.24
2022-09-06T05:13:44.544Z,9.10
2022-09-06T05:14:46.706Z,9.19
2022-09-06T05:15:48.546Z,9.30
2022-09-06T05:16:51.916Z,9.24
2022-09-06T05:18:02.856Z,9.29
2022-09-06T05:19:04.872Z,9.33
2022-09-06T05:20:09.127Z,9.33
2022-09-06T05:21:11.159Z,9.32
2022-09-06T05:22:13.615Z,9.33
2022-09-06T05:23:16.144Z,9.27
2022-09-06T05:24:19.090Z,9.19
2022-09-06T05:25:21.301Z,9.24
2022-09-06T05:26:23.557Z,9.29
2022-09-06T05:27:25.621Z,9.30
2022-09-06T05:28:28.750Z,9.36
2022-09-06T05:29:31.124Z,9.49
2022-09-06T05:30:33.673Z,9.45
2022-09-06T05:31:35.751Z,9.51
2022-09-06T05:32:40.043Z,9.50
2022-09-06T05:33:42.104Z,9.51
2022-09-06T05:34:44.142Z,9.39
2022-09-06T05:35:47.249Z,9.37
2022-09-06T05:36:49.569Z,9.46
2022-09-06T05:37:51.350Z,9.58
2022-09-06T05:38:54.648Z,9.70
2022-09-06T05:39:56.900Z,9.81
2022-09-06T05:40:59.145Z,9.81
2022-09-06T05:42:01.806Z,9.59
2022-09-06T05:43:03.648Z,9.62
2022-09-06T05:44:05.608Z,9.75
2022-09-06T05:45:08.231Z,10.00
2022-09-06T05:46:12.885Z,10.12
2022-09-06T05:47:15.068Z,10.12
2022-09-06T05:48:17.070Z,10.21
2022-09-06T05:49:19.062Z,10.21
2022-09-06T05:50:22.451Z,10.20
2022-09-06T05:51:24.623Z,10.17
2022-09-06T05:52:28.741Z,10.16
2022-09-06T05:53:33.576Z,10.12
2022-09-06T05:54:35.705Z,9.94
2022-09-06T05:55:42.396Z,9.93
2022-09-06T05:56:42.590Z,10.03
2022-09-06T05:57:45.760Z,10.09
2022-09-06T05:58:47.653Z,10.06
2022-09-06T05:59:49.641Z,9.98
2022-09-06T06:00:51.863Z,9.98
2022-09-06T06:01:54.608Z,10.06
2022-09-06T06:02:56.656Z,10.17
2022-09-06T06:04:04.731Z,10.21
2022-09-06T06:05:09.775Z,10.27
2022-09-06T06:06:13.334Z,10.26
2022-09-06T06:07:15.517Z,10.32
2022-09-06T06:08:17.478Z,10.37
2022-09-06T06:09:19.564Z,10.41
2022-09-06T06:10:23.489Z,10.39
2022-09-06T06:11:26.546Z,10.41
2022-09-06T06:12:28.562Z,10.47
2022-09-06T06:13:31.709Z,10.56
2022-09-06T06:14:33.795Z,10.62
2022-09-06T06:15:35.960Z,10.71
2022-09-06T06:16:38.220Z,10.73
2022-09-06T06:17:41.083Z,10.69
2022-09-06T06:18:43.136Z,10.79
2022-09-06T06:19:44.941Z,10.90
2022-09-06T06:20:46.972Z,10.90
2022-09-06T06:21:49.006Z,10.81
2022-09-06T06:22:51.048Z,10.88
2022-09-06T06:23:55.350Z,10.99
2022-09-06T06:24:57.444Z,11.00
2022-09-06T06:25:59.746Z,10.87
2022-09-06T06:27:01.795Z,10.88
2022-09-06T06:28:03.835Z,10.70
2022-09-06T06:29:06.314Z,10.71
2022-09-06T06:30:09.573Z,10.65
2022-09-06T06:31:11.892Z,10.79
2022-09-06T06:32:14.730Z,10.90
2022-09-06T06:33:16.836Z,10.83
2022-09-06T06:34:18.931Z,10.79
2022-09-06T06:35:20.905Z,10.90
2022-09-06T06:36:26.167Z,10.98
2022-09-06T06:37:29.343Z,11.08
2022-09-06T06:38:36.269Z,10.95
2022-09-06T06:39:38.516Z,10.85
2022-09-06T06:40:44.324Z,10.86
2022-09-06T06:41:46.549Z,10.85
2022-09-06T06:43:02.665Z,10.85
2022-09-06T06:44:06.043Z,10.85
2022-09-06T06:45:09.469Z,10.93
2022-09-06T06:46:14.943Z,11.08
2022-09-06T06:47:17.698Z,11.14
2022-09-06T06:48:20.822Z,11.12
2022-09-06T06:49:23.931Z,11.09
2022-09-06T06:50:26.966Z,11.06
2022-09-06T06:51:31.779Z,10.96
2022-09-06T06:52:34.534Z,10.96
2022-09-06T06:53:36.771Z,11.10
2022-09-06T06:54:38.821Z,11.37
2022-09-06T06:55:44.435Z,11.62
2022-09-06T06:56:47.562Z,11.70
2022-09-06T06:57:53.776Z,11.70
2022-09-06T06:58:57.656Z,11.71
2022-09-06T07:00:00.207Z,11.63
2022-09-06T07:01:02.389Z,11.47
2022-09-06T07:02:05.501Z,11.58
2022-09-06T07:03:08.846Z,11.57
2022-09-06T07:04:10.842Z,11.58
2022-09-06T07:06:19.154Z,11.56
2022-09-06T07:08:26.023Z,11.79
2022-09-06T07:10:33.771Z,11.93
2022-09-06T07:11:37.364Z,11.86
2022-09-06T07:12:41.422Z,11.89
2022-09-06T07:13:44.336Z,11.77
2022-09-06T07:14:47.012Z,11.74
2022-09-06T07:15:49.224Z,11.74
2022-09-06T07:16:51.378Z,11.75
2022-09-06T07:17:57.098Z,11.74
2022-09-06T07:19:00.642Z,11.88
2022-09-06T07:22:21.243Z,11.62
2022-09-06T07:24:27.882Z,11.96
2022-09-06T07:25:30.242Z,11.91
2022-09-06T07:26:33.041Z,12.03
2022-09-06T07:27:50.795Z,12.10
2022-09-06T07:28:39.175Z,12.08
2022-09-06T07:29:41.131Z,11.91
2022-09-06T07:30:43.313Z,11.94
2022-09-06T07:32:50.208Z,11.98
2022-09-06T07:33:55.627Z,12.06
2022-09-06T07:34:57.952Z,12.10
2022-09-06T07:36:03.434Z,12.10
2022-09-06T07:37:05.647Z,12.18
2022-09-06T07:38:07.641Z,12.25
2022-09-06T07:39:09.783Z,12.24
2022-09-06T07:40:13.715Z,12.14
2022-09-06T07:41:18.703Z,11.89
2022-09-06T07:42:20.711Z,11.89
2022-09-06T07:43:24.099Z,12.03
2022-09-06T07:44:26.224Z,12.18
2022-09-06T07:45:28.272Z,12.22
2022-09-06T07:46:31.334Z,12.04
2022-09-06T07:48:40.155Z,12.28
2022-09-06T07:51:48.851Z,12.27
2022-09-06T07:54:12.943Z,12.21
2022-09-06T07:55:00.325Z,12.42
2022-09-06T07:56:05.915Z,12.34
2022-09-06T07:57:08.004Z,12.28
2022-09-06T07:58:10.044Z,12.47
2022-09-06T07:59:12.101Z,12.49
2022-09-06T08:00:14.872Z,12.39
2022-09-06T08:01:20.800Z,12.27
2022-09-06T08:02:23.129Z,12.05
2022-09-06T08:03:26.116Z,12.06
2022-09-06T08:04:28.463Z,12.12
2022-09-06T08:07:41.876Z,12.10
2022-09-06T08:08:59.831Z,12.19
2022-09-06T08:09:48.241Z,12.13
2022-09-06T08:10:50.383Z,12.13
2022-09-06T08:11:53.009Z,12.18
2022-09-06T08:12:55.541Z,12.19
2022-09-06T08:13:59.364Z,12.09
2022-09-06T08:15:01.859Z,12.25
2022-09-06T08:16:07.712Z,12.45
2022-09-06T08:17:10.862Z,12.49
2022-09-06T08:18:12.793Z,12.48
2022-09-06T08:19:15.663Z,12.53
2022-09-06T08:20:19.387Z,12.65
2022-09-06T08:21:23.777Z,12.68
2022-09-06T08:22:26.305Z,12.81
2022-09-06T08:23:28.897Z,12.99
2022-09-06T08:24:31.419Z,13.11
2022-09-06T08:25:33.827Z,13.32
2022-09-06T08:26:38.095Z,13.50
2022-09-06T08:27:40.770Z,13.36
2022-09-06T08:28:44.074Z,13.18
2022-09-06T08:29:46.372Z,13.23
2022-09-06T08:30:48.625Z,13.09
2022-09-06T08:31:51.712Z,13.14
2022-09-06T08:32:53.806Z,13.21
2022-09-06T08:33:57.977Z,13.26
2022-09-06T08:34:59.972Z,13.25
2022-09-06T08:36:03.217Z,13.22
2022-09-06T08:37:05.851Z,13.19
2022-09-06T08:38:08.455Z,13.10
2022-09-06T08:39:11.389Z,12.98
2022-09-06T08:40:17.415Z,12.91
2022-09-06T08:41:26.293Z,12.94
2022-09-06T08:42:29.990Z,12.88
2022-09-06T08:43:32.101Z,13.01
2022-09-06T08:44:57.250Z,13.09
2022-09-06T08:45:47.152Z,13.12
2022-09-06T08:46:59.523Z,13.14
2022-09-06T08:48:02.085Z,13.10
2022-09-06T08:49:06.545Z,13.19
2022-09-06T08:50:10.650Z,13.31
2022-09-06T08:51:50.167Z,13.34
2022-09-06T08:53:23.316Z,13.26
2022-09-06T08:54:32.522Z,13.02
2022-09-06T08:55:44.027Z,13.10
2022-09-06T08:57:21.752Z,13.08
2022-09-06T08:58:45.945Z,13.13
2022-09-06T08:59:51.571Z,13.24
2022-09-06T09:00:57.393Z,13.12
2022-09-06T09:02:20.945Z,13.09
2022-09-06T09:03:27.051Z,13.14
2022-09-06T09:04:31.325Z,13.15
2022-09-06T09:05:35.739Z,13.03
2022-09-06T09:06:38.137Z,13.03
2022-09-06T09:07:46.556Z,13.13
2022-09-06T09:09:06.952Z,13.22
2022-09-06T09:10:18.594Z,13.22
2022-09-06T09:11:23.844Z,13.04
2022-09-06T09:12:28.615Z,12.81
2022-09-06T09:13:55.478Z,12.72
2022-09-06T09:16:11.045Z,13.00
2022-09-06T09:17:16.431Z,12.86
2022-09-06T09:18:22.151Z,12.80
2022-09-06T09:19:24.333Z,12.89
2022-09-06T09:20:27.679Z,13.06
2022-09-06T09:21:37.179Z,13.07
2022-09-06T09:22:40.479Z,13.10
2022-09-06T09:23:45.170Z,13.25
2022-09-06T09:24:49.275Z,13.33
2022-09-06T09:25:55.056Z,13.44
2022-09-06T09:27:03.502Z,13.40
2022-09-06T09:28:09.144Z,13.30
2022-09-06T09:29:13.443Z,13.43
2022-09-06T09:31:23.637Z,13.71
2022-09-06T09:32:31.911Z,13.85
2022-09-06T09:33:35.912Z,13.95
2022-09-06T09:34:38.913Z,14.05
2022-09-06T09:35:41.607Z,14.05
2022-09-06T09:38:04.911Z,13.67
2022-09-06T09:39:10.866Z,13.52
2022-09-06T09:40:29.345Z,13.68
2022-09-06T09:41:33.852Z,13.57
2022-09-06T09:42:36.662Z,13.72
2022-09-06T09:43:45.205Z,13.73
2022-09-06T09:44:47.294Z,13.64
2022-09-06T09:46:25.075Z,13.63
2022-09-06T09:47:30.448Z,13.64
2022-09-06T09:48:32.540Z,13.36
2022-09-06T09:49:35.549Z,13.29
2022-09-06T09:50:37.801Z,13.31
2022-09-06T09:51:46.397Z,13.41
2022-09-06T09:52:48.314Z,13.41
2022-09-06T09:53:59.032Z,13.41
2022-09-06T09:55:04.367Z,13.31
2022-09-06T09:56:07.466Z,13.29
2022-09-06T09:57:19.808Z,13.26
2022-09-06T09:58:25.454Z,13.33
2022-09-06T09:59:34.146Z,13.41
2022-09-06T10:00:39.097Z,13.28
2022-09-06T10:01:42.086Z,13.22
2022-09-06T10:02:44.192Z,13.23
2022-09-06T10:05:03.848Z,13.15
2022-09-06T10:07:17.127Z,13.02
2022-09-06T10:08:23.821Z,13.09
2022-09-06T10:09:33.430Z,13.14
2022-09-06T10:10:41.596Z,13.25
2022-09-06T10:11:52.909Z,13.34
2022-09-06T10:13:15.717Z,13.35
2022-09-06T10:14:42.523Z,13.35
2022-09-06T10:15:44.544Z,13.49
2022-09-06T10:16:46.916Z,13.43
2022-09-06T10:17:50.913Z,13.47
2022-09-06T10:18:52.849Z,13.59
2022-09-06T10:19:55.188Z,13.76
2022-09-06T10:21:04.643Z,13.82
2022-09-06T10:22:12.956Z,13.79
2022-09-06T10:26:12.220Z,14.10
2022-09-06T10:27:17.956Z,13.80
2022-09-06T10:28:31.955Z,13.76
2022-09-06T10:29:52.634Z,14.00
2022-09-06T10:31:26.112Z,14.20
2022-09-06T10:32:47.853Z,14.10
2022-09-06T10:34:16.321Z,14.17
2022-09-06T10:35:28.011Z,14.09
2022-09-06T10:36:50.784Z,13.79
2022-09-06T10:37:59.442Z,13.93
2022-09-06T10:39:17.524Z,14.09
2022-09-06T10:40:35.761Z,14.17
2022-09-06T10:41:44.334Z,14.19
2022-09-06T10:42:49.963Z,14.25
2022-09-06T10:44:09.680Z,14.20
2022-09-06T10:45:30.182Z,13.74
2022-09-06T10:46:35.677Z,13.50
2022-09-06T10:47:56.984Z,13.63
2022-09-06T10:48:59.394Z,13.60
2022-09-06T10:50:03.701Z,13.56
2022-09-06T10:51:24.797Z,13.60
2022-09-06T10:52:33.860Z,13.45
2022-09-06T10:53:51.508Z,13.37
2022-09-06T10:54:57.214Z,13.37
2022-09-06T10:56:13.552Z,13.24
2022-09-06T10:58:29.823Z,13.29
2022-09-06T10:59:52.026Z,13.43
2022-09-06T11:00:54.923Z,13.47
2022-09-06T11:02:06.985Z,13.47
2022-09-06T11:05:48.310Z,13.50
2022-09-06T11:06:54.127Z,13.43
2022-09-06T11:09:15.718Z,13.28
2022-09-06T11:10:30.433Z,13.35
2022-09-06T11:11:42.244Z,13.30
2022-09-06T11:12:54.451Z,13.39
2022-09-06T11:13:56.336Z,13.52
2022-09-06T11:15:02.751Z,13.63
2022-09-06T11:16:08.800Z,13.68
2022-09-06T11:17:23.577Z,13.76
2022-09-06T11:18:41.865Z,13.73
2022-09-06T11:21:38.031Z,13.76
2022-09-06T11:23:04.435Z,13.60
2022-09-06T11:24:17.922Z,13.70
2022-09-06T11:25:55.488Z,13.77
2022-09-06T11:27:07.447Z,13.69
2022-09-06T11:28:13.665Z,13.94
2022-09-06T11:29:25.855Z,14.09
2022-09-06T11:30:29.654Z,14.05
2022-09-06T11:32:42.946Z,14.28
2022-09-06T11:33:45.118Z,14.26
2022-09-06T11:34:56.604Z,14.07
2022-09-06T11:36:17.523Z,14.06
2022-09-06T11:38:39.610Z,14.17
2022-09-06T11:40:50.876Z,14.05
2022-09-06T11:41:53.214Z,13.94
2022-09-06T11:42:58.815Z,13.98
2022-09-06T11:44:01.360Z,13.99
2022-09-06T11:45:22.579Z,13.88
2022-09-06T11:46:39.555Z,13.88
2022-09-06T11:47:44.407Z,13.74
2022-09-06T11:49:09.300Z,13.59
2022-09-06T11:50:27.507Z,13.52
2022-09-06T11:51:38.888Z,13.49
2022-09-06T11:53:01.486Z,13.53
2022-09-06T11:54:16.363Z,13.49
2022-09-06T11:55:22.835Z,13.37
2022-09-06T11:56:33.099Z,13.15
2022-09-06T11:57:35.373Z,13.17
2022-09-06T11:58:47.004Z,13.24
2022-09-06T11:59:52.697Z,13.37
2022-09-06T12:01:16.834Z,13.37
2022-09-06T12:02:40.414Z,13.46
2022-09-06T12:04:06.698Z,13.38
2022-09-06T12:05:04.631Z,13.40
2022-09-06T12:06:28.054Z,13.50
2022-09-06T12:07:31.725Z,13.62
2022-09-06T12:08:33.874Z,13.69
2022-09-06T12:09:39.213Z,13.79
2022-09-06T12:10:48.093Z,13.80
2022-09-06T12:11:50.181Z,13.85
2022-09-06T12:12:52.198Z,13.90
2022-09-06T12:13:57.540Z,13.85
2022-09-06T12:15:03.641Z,13.89
2022-09-06T12:16:09.243Z,13.97
2022-09-06T12:17:19.041Z,14.04
2022-09-06T12:18:45.293Z,14.08
2022-09-06T12:19:50.702Z,14.14
2022-09-06T12:20:56.448Z,14.14
2022-09-06T12:21:58.457Z,14.18
2022-09-06T12:23:00.471Z,14.24
2022-09-06T12:24:04.866Z,14.04
2022-09-06T12:25:27.092Z,14.09
2022-09-06T12:26:53.201Z,13.97
2022-09-06T12:28:00.407Z,14.06
2022-09-06T12:29:06.049Z,14.18
2022-09-06T12:30:13.143Z,14.31
2022-09-06T12:31:39.672Z,14.46
2022-09-06T12:32:49.663Z,14.63
2022-09-06T12:33:52.520Z,14.89
2022-09-06T12:36:22.228Z,15.14
2022-09-06T12:37:36.569Z,15.09
2022-09-06T12:38:38.628Z,14.92
2022-09-06T12:39:44.268Z,14.90
2022-09-06T12:40:49.888Z,14.63
2022-09-06T12:41:58.541Z,14.37
2022-09-06T12:43:03.791Z,14.41
2022-09-06T12:44:07.087Z,14.36
2022-09-06T12:45:12.762Z,14.44
2022-09-06T12:46:16.622Z,14.54
2022-09-06T12:47:29.283Z,14.68
2022-09-06T12:48:34.052Z,14.62
2022-09-06T12:49:36.329Z,14.46
2022-09-06T12:50:39.989Z,14.49
2022-09-06T12:51:42.179Z,14.40
2022-09-06T12:52:47.691Z,14.21
2022-09-06T12:53:55.943Z,14.21
2022-09-06T12:54:58.123Z,14.38
2022-09-06T12:56:09.223Z,14.60
2022-09-06T12:57:14.701Z,14.79
2022-09-06T12:58:20.372Z,14.58
2022-09-06T12:59:24.480Z,14.57
2022-09-06T13:01:43.848Z,14.74
2022-09-06T13:03:04.973Z,14.53
2022-09-06T13:04:25.224Z,14.43
2022-09-06T13:05:28.346Z,14.33
2022-09-06T13:06:34.638Z,14.41
2022-09-06T13:07:40.270Z,14.37
2022-09-06T13:08:45.911Z,14.45
2022-09-06T13:09:51.556Z,14.52
2022-09-06T13:10:54.235Z,14.49
2022-09-06T13:12:09.395Z,14.33
2022-09-06T13:13:13.545Z,14.50
2022-09-06T13:14:25.589Z,14.62
2022-09-06T13:15:30.315Z,14.68
2022-09-06T13:16:39.277Z,14.64
2022-09-06T13:17:41.392Z,14.70
2022-09-06T13:18:44.458Z,14.60
2022-09-06T13:19:47.207Z,14.54
2022-09-06T13:21:10.724Z,14.63
2022-09-06T13:22:16.348Z,14.62
2022-09-06T13:23:20.433Z,14.58
2022-09-06T13:24:28.814Z,14.57
2022-09-06T13:25:31.037Z,14.68
2022-09-06T13:26:36.733Z,14.76
2022-09-06T13:27:42.397Z,14.67
2022-09-06T13:28:44.270Z,14.43
2022-09-06T13:29:55.901Z,14.36
2022-09-06T13:31:10.987Z,14.43
2022-09-06T13:32:13.475Z,14.38
2022-09-06T13:33:25.123Z,14.42
2022-09-06T13:34:32.772Z,14.41
2022-09-06T13:35:38.272Z,14.46
2022-09-06T13:36:44.585Z,14.49
2022-09-06T13:37:46.697Z,14.55
2022-09-06T13:38:48.944Z,14.55
2022-09-06T13:39:51.873Z,14.44
2022-09-06T13:41:11.658Z,14.46
2022-09-06T13:42:05.170Z,14.60
2022-09-06T13:43:12.645Z,14.62
2022-09-06T13:44:20.056Z,14.41
2022-09-06T13:45:28.210Z,14.13
2022-09-06T13:46:33.079Z,14.25
2022-09-06T13:47:35.202Z,14.29
2022-09-06T13:48:37.837Z,14.29
2022-09-06T13:49:39.936Z,14.30
2022-09-06T13:50:41.891Z,14.38
2022-09-06T13:51:43.776Z,14.62
2022-09-06T13:52:46.930Z,15.10
2022-09-06T13:53:49.809Z,15.55
2022-09-06T13:54:51.792Z,15.67
2022-09-06T13:55:53.701Z,15.64
2022-09-06T13:56:56.982Z,15.42
2022-09-06T13:57:59.095Z,15.44
2022-09-06T13:59:01.739Z,15.36
2022-09-06T14:00:05.810Z,15.21
2022-09-06T14:01:09.538Z,15.26
2022-09-06T14:02:13.429Z,14.99
2022-09-06T14:03:19.249Z,14.87
2022-09-06T14:04:21.434Z,14.74
2022-09-06T14:05:23.431Z,14.81
2022-09-06T14:06:26.536Z,14.68
2022-09-06T14:07:28.675Z,14.71
2022-09-06T14:08:55.739Z,14.44
2022-09-06T14:09:36.270Z,14.44
2022-09-06T14:10:38.587Z,14.30
2022-09-06T14:11:43.809Z,14.42
2022-09-06T14:13:03.117Z,14.53
2022-09-06T14:14:06.835Z,14.66
2022-09-06T14:15:10.223Z,14.66
2022-09-06T14:16:13.399Z,14.69
2022-09-06T14:17:16.127Z,14.65
2022-09-06T14:18:18.406Z,14.40
2022-09-06T14:19:20.548Z,14.47
2022-09-06T14:20:24.385Z,14.35
2022-09-06T14:21:27.439Z,14.29
2022-09-06T14:22:29.752Z,14.36
2022-09-06T14:23:33.219Z,14.32
2022-09-06T14:24:35.572Z,14.32
2022-09-06T14:25:37.729Z,14.37
2022-09-06T14:26:39.906Z,14.37
2022-09-06T14:27:42.049Z,14.37
2022-09-06T14:28:44.586Z,14.28
2022-09-06T14:29:47.046Z,14.19
2022-09-06T14:30:49.334Z,14.13
2022-09-06T14:31:51.411Z,14.25
2022-09-06T14:32:53.198Z,14.27
2022-09-06T14:33:56.260Z,14.27
2022-09-06T14:34:58.229Z,14.30
2022-09-06T14:36:01.965Z,14.36
2022-09-06T14:37:04.142Z,14.34
2022-09-06T14:38:06.351Z,14.37
2022-09-06T14:39:08.951Z,14.36
2022-09-06T14:40:23.578Z,14.29
2022-09-06T14:41:26.212Z,14.26
2022-09-06T14:42:28.382Z,14.26
2022-09-06T14:43:30.847Z,14.09
2022-09-06T14:44:33.013Z,14.16
2022-09-06T14:45:36.639Z,14.24
2022-09-06T14:46:38.804Z,14.08
2022-09-06T14:47:42.082Z,14.08
2022-09-06T14:48:45.669Z,14.03
2022-09-06T14:49:47.921Z,14.04
2022-09-06T14:50:50.070Z,14.02
2022-09-06T14:51:52.325Z,14.04
2022-09-06T14:52:54.464Z,14.12
2022-09-06T14:53:59.532Z,14.05
2022-09-06T14:55:02.259Z,14.00
2022-09-06T14:56:07.442Z,13.95
2022-09-06T14:57:09.564Z,13.88
2022-09-06T14:58:11.757Z,13.74
2022-09-06T14:59:15.024Z,13.75
2022-09-06T15:00:20.237Z,13.80
2022-09-06T15:01:26.421Z,13.83
2022-09-06T15:02:29.213Z,13.78
2022-09-06T15:03:33.446Z,13.86